< < Back
Terminal Aerodrome Forecast


Current Version              Previous Versions:   1  2  3  4  5  6  7  8  9  

Terminal Aerodrome Forecast

255
FTUS42 KGSP 311139
TAFHKY
TAF
KHKY 311139Z 3112/0112 01003KT 5SM BR SCT015 BKN040
      TEMPO 3112/3114 BKN015 OVC040
     FM311500 04004KT P6SM SCT050
     FM010500 00000KT 5SM BR BKN060
     FM011000 00000KT 3SM BR FEW010 SCT070=

Latest METAR

723
SAUS70 KWBC 311500 RRA
MTRHKY
METAR KHKY 311453Z 00000KT 10SM CLR 24/17 A3016 RMK AO2 SLP192 T02390172
53005


USA.gov is the U.S. government's official web portal to all federal, state and local government web resources and services.